Terminal Aerodrome Forecast
Issued by NWS Bismarck, ND

Home | Current Version | Previous Version | Text Only | Print | Product List | Glossary Off
Versions: 1 2 3 4 5 6 7 8 9 10 11 12 13

000
FTUS43 KBIS 292300
TAFBIS
TAF
KBIS 292333Z 3000/3024 24005KT P6SM SCT070
     FM300300 VRB05KT P6SM SKC
     FM301800 36006KT P6SM SCT080=

USA.gov is the U.S. government's official web portal to all federal, state and local government web resources and services.